Date,TemperatureHighF,TemperatureAvgF,TemperatureLowF,DewpointHighF,DewpointAvgF,DewpointLowF,HumidityHigh,HumidityAvg,HumidityLow,PressureMaxIn,PressureMinIn,WindSpeedMaxMPH,WindSpeedAvgMPH,GustSpeedMaxMPH,PrecipitationSumIn
2014-1-1,62,54,47,-100,-100,-100,0,0,100,0.00,40.00,0,-999,0,0.00
2014-1-2,59,51,39,-100,-100,-100,0,0,100,0.00,40.00,0,-999,0,0.00
2014-1-3,47,39,32,-100,-100,-100,0,0,100,0.00,40.00,0,-999,0,0.00
2014-1-4,65,45,30,-100,-100,-100,0,0,100,0.00,40.00,0,-999,0,0.00
2014-1-5,72,55,35,-100,-100,-100,0,0,100,0.00,40.00,0,-999,0,0.00
2014-1-6,34,30,27,-100,-100,-100,0,0,100,0.00,40.00,0,-999,0,0.00
2014-1-7,39,30,22,-100,-100,-100,0,0,100,0.00,40.00,0,-999,0,0.00
2014-1-8,54,39,25,-100,-100,-100,0,0,100,0.00,40.00,0,-999,0,0.00
2014-1-9,65,51,43,-100,-100,-100,0,0,100,0.00,40.00,0,-999,0,0.00
2014-1-10,71,62,51,-100,-100,-100,0,0,100,0.00,40.00,0,-999,0,0.00
2014-1-11,70,64,49,-100,-100,-100,0,0,100,0.00,40.00,0,-999,0,0.00
2014-1-12,73,54,40,-100,-100,-100,0,0,100,0.00,40.00,0,-999,0,0.00
2014-1-13,73,62,54,-100,-100,-100,0,0,100,0.00,40.00,0,-999,0,0.00
2014-1-14,69,54,40,-100,-100,-100,0,0,100,0.00,40.00,0,-999,0,0.00
2014-1-15,54,48,39,-100,-100,-100,0,0,100,0.00,40.00,0,-999,0,0.00
2014-1-16,64,48,34,-100,-100,-100,0,0,100,0.00,40.00,0,-999,0,0.00
2014-1-17,57,50,39,-100,-100,-100,0,0,100,0.00,40.00,0,-999,0,0.00
2014-1-18,63,47,32,-100,-100,-100,0,0,100,0.00,40.00,0,-999,0,0.00
2014-1-19,67,55,45,-100,-100,-100,0,0,100,0.00,40.00,0,-999,0,0.00
2014-1-20,72,55,37,-100,-100,-100,0,0,100,0.00,40.00,0,-999,0,0.00
2014-1-21,61,53,40,-100,-100,-100,0,0,100,0.00,40.00,0,-999,0,0.00
2014-1-22,60,43,32,-100,-100,-100,0,0,100,0.00,40.00,0,-999,0,0.00
2014-1-23,54,45,33,-100,-100,-100,0,0,100,0.00,40.00,0,-999,0,0.00
2014-1-24,32,30,28,-100,-100,-100,0,0,100,0.00,40.00,0,-999,0,0.00
2014-1-25,55,40,27,-100,-100,-100,0,0,100,0.00,40.00,0,-999,0,0.00
2014-1-26,65,54,41,-100,-100,-100,0,0,100,0.00,40.00,0,-999,0,0.00
2014-1-27,63,54,41,-100,-100,-100,0,0,100,0.00,40.00,0,-999,0,0.00
2014-1-28,40,30,25,-100,-100,-100,0,0,100,0.00,40.00,0,-999,0,0.00
2014-1-29,37,30,25,-100,-100,-100,0,0,100,0.00,40.00,0,-999,0,0.00
2014-1-30,56,37,23,-100,-100,-100,0,0,100,0.00,40.00,0,-999,0,0.00
2014-1-31,67,51,40,-100,-100,-100,0,0,100,0.00,40.00,0,-999,0,0.00
2014-2-1,76,62,48,-100,-100,-100,0,0,100,0.00,40.00,0,-999,0,0.00
2014-2-2,73,65,42,-100,-100,-100,0,0,100,0.00,40.00,0,-999,0,0.00
2014-2-3,47,42,38,-100,-100,-100,0,0,100,0.00,40.00,0,-999,0,0.00
2014-2-4,69,50,44,-100,-100,-100,0,0,100,0.00,40.00,0,-999,0,0.00
2014-2-5,47,43,38,-100,-100,-100,0,0,100,0.00,40.00,0,-999,0,0.00
2014-2-6,43,36,32,-100,-100,-100,0,0,100,0.00,40.00,0,-999,0,0.00
2014-2-7,54,39,29,-100,-100,-100,0,0,100,0.00,40.00,0,-999,0,0.00
2014-2-8,67,49,40,-100,-100,-100,0,0,100,0.00,40.00,0,-999,0,0.00
2014-2-9,73,60,49,-100,-100,-100,0,0,100,0.00,40.00,0,-999,0,0.00
2014-2-10,62,52,43,-100,-100,-100,0,0,100,0.00,40.00,0,-999,0,0.00
2014-2-11,43,39,36,-100,-100,-100,0,0,100,0.00,40.00,0,-999,0,0.00
2014-2-12,36,35,34,-100,-100,-100,0,0,100,0.00,40.00,0,-999,0,0.00
2014-2-13,58,42,32,-100,-100,-100,0,0,100,0.00,40.00,0,-999,0,0.00
2014-2-14,67,56,38,-100,-100,-100,0,0,100,0.00,40.00,0,-999,0,0.00
2014-2-15,70,56,47,-100,-100,-100,0,0,100,0.00,40.00,0,-999,0,0.00
2014-2-16,73,57,43,-100,-100,-100,0,0,100,0.00,40.00,0,-999,0,0.00
2014-2-17,76,67,56,-100,-100,-100,0,0,100,0.00,40.00,0,-999,0,0.00
2014-2-18,75,68,65,-100,-100,-100,0,0,100,0.00,40.00,0,-999,0,0.00
2014-2-19,81,71,66,-100,-100,-100,0,0,100,0.00,40.00,0,-999,0,0.00
2014-2-20,80,74,65,-100,-100,-100,0,0,100,0.00,40.00,0,-999,0,0.00
2014-2-21,72,58,48,-100,-100,-100,0,0,100,0.00,40.00,0,-999,0,0.00
2014-2-22,72,59,48,-100,-100,-100,0,0,100,0.00,40.00,0,-999,0,0.00
2014-2-23,66,63,59,-100,-100,-100,0,0,100,0.00,40.00,0,-999,0,0.00
2014-2-24,75,66,57,-100,-100,-100,0,0,100,0.00,40.00,0,-999,0,0.00
2014-2-25,68,62,58,-100,-100,-100,0,0,100,0.00,40.00,0,-999,0,0.00
2014-2-26,58,47,39,-100,-100,-100,0,0,100,0.00,40.00,0,-999,0,0.00
2014-2-27,58,44,34,-100,-100,-100,0,0,100,0.00,40.00,0,-999,0,0.00
2014-2-28,65,52,37,-100,-100,-100,0,0,100,0.00,40.00,0,-999,0,0.00
2014-3-1,83,69,58,-100,-100,-100,0,0,100,0.00,40.00,0,-999,0,0.00
2014-3-2,81,71,64,-100,-100,-100,0,0,100,0.00,40.00,0,-999,0,0.00
2014-3-3,70,40,32,-100,-100,-100,0,0,100,0.00,40.00,0,-999,0,0.00
2014-3-4,39,34,30,-100,-100,-100,0,0,100,0.00,40.00,0,-999,0,0.00
2014-3-5,59,46,38,-100,-100,-100,0,0,100,0.00,40.00,0,-999,0,0.00
2014-3-6,50,46,44,-100,-100,-100,0,0,100,0.00,40.00,0,-999,0,0.00
2014-3-7,65,51,43,-100,-100,-100,0,0,100,0.00,40.00,0,-999,0,0.00
2014-3-8,73,62,50,-100,-100,-100,0,0,100,0.00,40.00,0,-999,0,0.00
2014-3-9,62,61,61,-100,-100,-100,0,0,100,0.00,40.00,0,-999,0,0.00
2014-3-10,82,74,67,-100,-100,-100,0,0,100,0.00,40.00,0,-999,0,0.00
2014-3-11,76,69,64,-100,-100,-100,0,0,100,0.00,40.00,0,-999,0,0.00
2014-3-12,66,62,56,-100,-100,-100,0,0,100,0.00,40.00,0,-999,0,0.00
2014-3-13,70,55,40,-100,-100,-100,0,0,100,0.00,40.00,0,-999,0,0.00
2014-3-14,73,60,44,-100,-100,-100,0,0,100,0.00,40.00,0,-999,0,0.00
2014-3-15,76,68,62,-100,-100,-100,0,0,100,0.00,40.00,0,-999,0,0.00
2014-3-16,75,68,55,-100,-100,-100,0,0,100,0.00,40.00,0,-999,0,0.00
2014-3-17,52,45,43,-100,-100,-100,0,0,100,0.00,40.00,0,-999,0,0.00
2014-3-18,70,55,40,-100,-100,-100,0,0,100,0.00,40.00,0,-999,0,0.00
2014-3-19,76,72,64,-100,-100,-100,0,0,100,0.00,40.00,0,-999,0,0.00
2014-3-20,76,65,58,-100,-100,-100,0,0,100,0.00,40.00,0,-999,0,0.00
2014-3-21,81,65,50,-100,-100,-100,0,0,100,0.00,40.00,0,-999,0,0.00
2014-3-22,87,71,60,-100,-100,-100,0,0,100,0.00,40.00,0,-999,0,0.00
2014-3-23,72,62,54,-100,-100,-100,0,0,100,0.00,40.00,0,-999,0,0.00
2014-3-24,73,60,52,-100,-100,-100,0,0,100,0.00,40.00,0,-999,0,0.00
2014-3-25,65,56,45,-100,-100,-100,0,0,100,0.00,40.00,0,-999,0,0.00
2014-3-26,63,52,43,-100,-100,-100,0,0,100,0.00,40.00,0,-999,0,0.00
2014-3-27,72,63,53,-100,-100,-100,0,0,100,0.00,40.00,0,-999,0,0.00
2014-3-28,86,72,66,-100,-100,-100,0,0,100,0.00,40.00,0,-999,0,0.00
2014-3-29,71,64,58,-100,-100,-100,0,0,100,0.00,40.00,0,-999,0,0.00
2014-3-30,76,61,48,-100,-100,-100,0,0,100,0.00,40.00,0,-999,0,0.00
2014-3-31,82,64,46,-100,-100,-100,0,0,100,0.00,40.00,0,-999,0,0.00
2014-4-1,85,72,62,-100,-100,-100,0,0,100,0.00,40.00,0,-999,0,0.00
2014-4-2,86,75,67,-100,-100,-100,0,0,100,0.00,40.00,0,-999,0,0.00
2014-4-3,86,77,72,-100,-100,-100,0,0,100,0.00,40.00,0,-999,0,0.00
2014-4-4,80,72,63,-100,-100,-100,0,0,100,0.00,40.00,0,-999,0,0.00
2014-4-5,69,66,62,-100,-100,-100,0,0,100,0.00,40.00,0,-999,0,0.00
2014-4-6,75,65,58,-100,-100,-100,0,0,100,0.00,40.00,0,-999,0,0.00
2014-4-7,73,64,56,-100,-100,-100,0,0,100,0.00,40.00,0,-999,0,0.00
2014-4-8,68,58,53,-100,-100,-100,0,0,100,0.00,40.00,0,-999,0,0.00
2014-4-9,73,59,47,-100,-100,-100,0,0,100,0.00,40.00,0,-999,0,0.00
2014-4-10,79,65,51,-100,-100,-100,0,0,100,0.00,40.00,0,-999,0,0.00
2014-4-11,83,68,59,-100,-100,-100,0,0,100,0.00,40.00,0,-999,0,0.00
2014-4-12,87,72,61,-100,-100,-100,0,0,100,0.00,40.00,0,-999,0,0.00
2014-4-13,86,77,70,-100,-100,-100,0,0,100,0.00,40.00,0,-999,0,0.00
2014-4-14,87,72,51,-100,-100,-100,0,0,100,0.00,40.00,0,-999,0,0.00
2014-4-15,58,52,45,-100,-100,-100,0,0,100,0.00,40.00,0,-999,0,0.00
2014-4-16,71,55,41,-100,-100,-100,0,0,100,0.00,40.00,0,-999,0,0.00
2014-4-17,69,62,50,-100,-100,-100,0,0,100,0.00,40.00,0,-999,0,0.00
2014-4-18,78,66,62,-100,-100,-100,0,0,100,0.00,40.00,0,-999,0,0.00
2014-4-19,80,68,55,-100,-100,-100,0,0,100,0.00,40.00,0,-999,0,0.00
2014-4-20,88,71,57,-100,-100,-100,0,0,100,0.00,40.00,0,-999,0,0.00
2014-4-21,85,72,65,-100,-100,-100,0,0,100,0.00,40.00,0,-999,0,0.00
2014-4-22,80,71,65,-100,-100,-100,0,0,100,0.00,40.00,0,-999,0,0.00
2014-4-23,87,74,61,-100,-100,-100,0,0,100,0.00,40.00,0,-999,0,0.00
2014-4-24,85,73,65,-100,-100,-100,0,0,100,0.00,40.00,0,-999,0,0.00
2014-4-25,92,77,71,-100,-100,-100,0,0,100,0.00,40.00,0,-999,0,0.00
2014-4-26,92,79,68,-100,-100,-100,0,0,100,0.00,40.00,0,-999,0,0.00
2014-4-27,89,80,75,-100,-100,-100,0,0,100,0.00,40.00,0,-999,0,0.00
2014-4-28,86,79,75,-100,-100,-100,0,0,100,0.00,40.00,0,-999,0,0.00
2014-4-29,89,80,74,-100,-100,-100,0,0,100,0.00,40.00,0,-999,0,0.00
2014-4-30,73,67,59,-100,-100,-100,0,0,100,0.00,40.00,0,-999,0,0.00
2014-5-1,74,63,51,-100,-100,-100,0,0,100,0.00,40.00,0,-999,0,0.00
2014-5-2,80,69,58,-100,-100,-100,0,0,100,0.00,40.00,0,-999,0,0.00
2014-5-3,87,73,57,-100,-100,-100,0,0,100,0.00,40.00,0,-999,0,0.00
2014-5-4,91,77,62,-100,-100,-100,0,0,100,0.00,40.00,0,-999,0,0.00
2014-5-5,87,74,60,-100,-100,-100,0,0,100,0.00,40.00,0,-999,0,0.00
2014-5-6,88,75,62,-100,-100,-100,0,0,100,0.00,40.00,0,-999,0,0.00
2014-5-13,80,76,74,-100,-100,-100,0,0,100,0.00,40.00,0,-999,0,0.00
2014-5-14,73,68,59,-100,-100,-100,0,0,100,0.00,40.00,0,-999,0,0.00
2014-5-15,75,62,51,-100,-100,-100,0,0,100,0.00,40.00,0,-999,0,0.00
2014-5-16,82,69,57,-100,-100,-100,0,0,100,0.00,40.00,0,-999,0,0.00
2014-5-17,83,74,62,-100,-100,-100,0,0,100,0.00,40.00,0,-999,0,0.00
2014-5-18,90,75,62,-100,-100,-100,0,0,100,0.00,40.00,0,-999,0,0.00
2014-5-19,92,78,64,-100,-100,-100,0,0,100,0.00,40.00,0,-999,0,0.00
2014-5-20,90,79,69,-100,-100,-100,0,0,100,0.00,40.00,0,-999,0,0.00
2014-5-21,91,80,69,-100,-100,-100,0,0,100,0.00,40.00,0,-999,0,0.00
2014-5-22,101,81,67,-100,-100,-100,0,0,100,0.00,40.00,0,-999,0,0.00
2014-5-23,95,80,69,-100,-100,-100,0,0,100,0.00,40.00,0,-999,0,0.00
2014-5-24,94,79,69,-100,-100,-100,0,0,100,0.00,40.00,0,-999,0,0.00
2014-5-25,96,82,69,-100,-100,-100,0,0,100,0.00,40.00,0,-999,0,0.00
2014-5-26,94,81,70,-100,-100,-100,0,0,100,0.00,40.00,0,-999,0,0.00
2014-5-27,87,80,73,-100,-100,-100,0,0,100,0.00,40.00,0,-999,0,0.00
2014-5-28,85,74,70,-100,-100,-100,0,0,100,0.00,40.00,0,-999,0,0.00
2014-5-29,89,76,72,-100,-100,-100,0,0,100,0.00,40.00,0,-999,0,0.00
2014-5-30,91,81,74,-100,-100,-100,0,0,100,0.00,40.00,0,-999,0,0.00
2014-5-31,91,81,74,-100,-100,-100,0,0,100,0.00,40.00,0,-999,0,0.00
2014-6-1,90,80,74,-100,-100,-100,0,0,100,0.00,40.00,0,-999,0,0.00
2014-6-2,92,80,75,-100,-100,-100,0,0,100,0.00,40.00,0,-999,0,0.00
2014-6-3,90,81,76,-100,-100,-100,0,0,100,0.00,40.00,0,-999,0,0.00
2014-6-4,95,83,74,-100,-100,-100,0,0,100,0.00,40.00,0,-999,0,0.00
2014-6-5,94,84,76,-100,-100,-100,0,0,100,0.00,40.00,0,-999,0,0.00
2014-6-6,100,85,76,-100,-100,-100,0,0,100,0.00,40.00,0,-999,0,0.00
2014-6-7,98,87,78,-100,-100,-100,0,0,100,0.00,40.00,0,-999,0,0.00
2014-6-8,94,85,76,-100,-100,-100,0,0,100,0.00,40.00,0,-999,0,0.00
2014-6-9,92,83,77,-100,-100,-100,0,0,100,0.00,40.00,0,-999,0,0.00
2014-6-10,88,79,68,-100,-100,-100,0,0,100,0.00,40.00,0,-999,0,0.00
2014-6-11,93,81,71,-100,-100,-100,0,0,100,0.00,40.00,0,-999,0,0.00
2014-6-12,96,83,74,-100,-100,-100,0,0,100,0.00,40.00,0,-999,0,0.00
2014-6-13,91,80,68,-100,-100,-100,0,0,100,0.00,40.00,0,-999,0,0.00
2014-6-14,98,84,72,-100,-100,-100,0,0,100,0.00,40.00,0,-999,0,0.00
2014-6-15,94,82,76,-100,-100,-100,0,0,100,0.00,40.00,0,-999,0,0.00
2014-6-16,96,84,76,-100,-100,-100,0,0,100,0.00,40.00,0,-999,0,0.00
2014-6-17,98,83,78,-100,-100,-100,0,0,100,0.00,40.00,0,-999,0,0.00
2014-6-18,101,86,76,-100,-100,-100,0,0,100,0.00,40.00,0,-999,0,0.00
2014-6-19,105,87,76,-100,-100,-100,0,0,100,0.00,40.00,0,-999,0,0.00
2014-6-20,98,85,76,-100,-100,-100,0,0,100,0.00,40.00,0,-999,0,0.00
2014-6-21,94,85,77,-100,-100,-100,0,0,100,0.00,40.00,0,-999,0,0.00
2014-6-22,94,85,78,-100,-100,-100,0,0,100,0.00,40.00,0,-999,0,0.00
2014-6-23,94,84,79,-100,-100,-100,0,0,100,0.00,40.00,0,-999,0,0.00
2014-6-24,91,81,75,-100,-100,-100,0,0,100,0.00,40.00,0,-999,0,0.00
2014-6-25,91,78,74,-100,-100,-100,0,0,100,0.00,40.00,0,-999,0,0.00
2014-6-26,94,77,73,-100,-100,-100,0,0,100,0.00,40.00,0,-999,0,0.00
2014-6-27,88,78,73,-100,-100,-100,0,0,100,0.00,40.00,0,-999,0,0.00
2014-6-28,94,83,74,-100,-100,-100,0,0,100,0.00,40.00,0,-999,0,0.00
2014-6-29,94,86,80,-100,-100,-100,0,0,100,0.00,40.00,0,-999,0,0.00
2014-6-30,94,87,79,-100,-100,-100,0,0,100,0.00,40.00,0,-999,0,0.00
2014-7-1,102,86,76,-100,-100,-100,0,0,100,0.00,40.00,0,-999,0,0.00
2014-7-2,98,85,77,-100,-100,-100,0,0,100,0.00,40.00,0,-999,0,0.00
2014-7-3,98,85,73,-100,-100,-100,0,0,100,0.00,40.00,0,-999,0,0.00
2014-7-4,91,84,76,-100,-100,-100,0,0,100,0.00,40.00,0,-999,0,0.00
2014-7-5,94,81,70,-100,-100,-100,0,0,100,0.00,40.00,0,-999,0,0.00
2014-7-6,103,85,69,-100,-100,-100,0,0,100,0.00,40.00,0,-999,0,0.00
2014-7-7,101,84,74,-100,-100,-100,0,0,100,0.00,40.00,0,-999,0,0.00
2014-7-8,93,79,73,-100,-100,-100,0,0,100,0.00,40.00,0,-999,0,0.00
2014-7-9,91,80,74,-100,0,200,0,0,100,0.00,40.00,0,0,0,0.00
2014-7-10,92,84,75,-100,0,200,0,0,100,0.00,40.00,0,0,0,0.00
2014-7-11,96,84,76,-100,0,200,0,0,100,0.00,40.00,0,0,0,0.00
2014-7-12,98,84,75,-100,0,200,0,0,100,0.00,40.00,0,0,0,0.00
2014-7-13,92,81,77,-100,0,200,0,0,100,0.00,40.00,0,0,0,0.00
2014-7-14,94,84,76,-100,0,200,0,0,100,0.00,40.00,0,0,0,0.00
2014-7-15,87,82,78,-100,0,200,0,0,100,0.00,40.00,0,0,0,0.00
2014-7-16,87,80,73,-100,0,200,0,0,100,0.00,40.00,0,0,0,0.00
2014-7-17,94,80,69,-100,0,200,0,0,100,0.00,40.00,0,0,0,0.00
2014-7-18,81,78,75,-100,0,200,0,0,100,0.00,40.00,0,0,0,0.00
2014-7-19,83,80,76,-100,0,200,0,0,100,0.00,40.00,0,0,0,0.00
2014-7-20,92,81,76,-100,0,200,0,0,100,0.00,40.00,0,0,0,0.00
2014-7-21,91,83,76,-100,0,200,0,0,100,0.00,40.00,0,0,0,0.00
2014-7-22,93,83,76,-100,0,200,0,0,100,0.00,40.00,0,0,0,0.00
2014-7-23,94,82,74,-100,0,200,0,0,100,0.00,40.00,0,0,0,0.00
2014-7-24,94,84,76,-100,0,200,0,0,100,0.00,40.00,0,0,0,0.00
2014-7-25,98,85,78,-100,0,200,0,0,100,0.00,40.00,0,0,0,0.00
2014-7-26,98,87,80,-100,0,200,0,0,100,0.00,40.00,0,0,0,0.00
2014-7-27,98,87,80,-100,0,200,0,0,100,0.00,40.00,0,0,0,0.00
2014-7-28,95,85,78,-100,0,200,0,0,100,0.00,40.00,0,0,0,0.00
2014-7-29,92,83,76,-100,0,200,0,0,100,0.00,40.00,0,0,0,0.00
2014-7-30,89,81,72,-100,0,200,0,0,100,0.00,40.00,0,0,0,0.00
2014-7-31,98,84,73,-100,0,200,0,0,100,0.00,40.00,0,0,0,0.00
2014-8-1,87,81,78,-100,0,200,0,0,100,0.00,40.00,0,0,0,0.00
2014-8-2,94,82,77,-100,0,200,0,0,100,0.00,40.00,0,0,0,0.00
2014-8-3,95,84,79,-100,0,200,0,0,100,0.00,40.00,0,0,0,0.00
2014-8-4,96,83,76,-100,0,200,0,0,100,0.00,40.00,0,0,0,0.00
2014-8-5,104,88,77,-100,0,200,0,0,100,0.00,40.00,0,0,0,0.00
2014-8-6,98,88,78,-100,0,200,0,0,100,0.00,40.00,0,0,0,0.00
2014-8-7,97,91,83,-100,0,200,0,0,100,0.00,40.00,0,0,0,0.00
2014-8-8,94,85,79,-100,0,200,0,0,100,0.00,40.00,0,0,0,0.00
2014-8-9,94,86,80,-100,0,200,0,0,100,0.00,40.00,0,0,0,0.00
2014-8-10,91,81,78,-100,0,200,0,0,100,0.00,40.00,0,0,0,0.00
2014-8-11,96,81,73,-100,0,200,0,0,100,0.00,40.00,0,0,0,0.00
2014-8-12,92,83,74,-100,0,200,0,0,100,0.00,40.00,0,0,0,0.00
2014-8-13,89,82,75,-100,0,200,0,0,100,0.00,40.00,0,0,0,0.00
2014-8-14,95,79,69,-100,0,200,0,0,100,0.00,40.00,0,0,0,0.00
2014-8-15,94,81,69,-100,0,200,0,0,100,0.00,40.00,0,0,0,0.00
2014-8-16,95,83,77,-100,0,200,0,0,100,0.00,40.00,0,0,0,0.00
2014-8-17,94,82,77,-100,0,200,0,0,100,0.00,40.00,0,0,0,0.00
2014-8-18,96,84,76,-100,0,200,0,0,100,0.00,40.00,0,0,0,0.00
2014-8-19,98,84,78,-100,0,200,0,0,100,0.00,40.00,0,0,0,0.00
2014-8-20,97,83,75,-100,0,200,0,0,100,0.00,40.00,0,0,0,0.00
2014-8-21,98,83,78,-100,0,200,0,0,100,0.00,40.00,0,0,0,0.00
2014-8-22,99,83,76,-100,0,200,0,0,100,0.00,40.00,0,0,0,0.00
2014-8-23,98,87,79,-100,0,200,0,0,100,0.00,40.00,0,0,0,0.00
2014-8-24,98,86,80,-100,0,200,0,0,100,0.00,40.00,0,0,0,0.00
2014-8-25,99,83,77,-100,0,200,0,0,100,0.00,40.00,0,0,0,0.00
2014-8-26,94,84,76,-100,0,200,0,0,100,0.00,40.00,0,0,0,0.00
2014-8-27,97,84,76,-100,0,200,0,0,100,0.00,40.00,0,0,0,0.00
2014-8-28,97,85,79,-100,0,200,0,0,100,0.00,40.00,0,0,0,0.00
2014-8-29,92,83,77,-100,0,200,0,0,100,0.00,40.00,0,0,0,0.00
2014-8-30,82,78,75,-100,0,200,0,0,100,0.00,40.00,0,0,0,0.00
2014-8-31,95,83,76,-100,0,200,0,0,100,0.00,40.00,0,0,0,0.00
2014-9-1,94,84,79,-100,0,200,0,0,100,0.00,40.00,0,0,0,0.00